Terminal Aerodrome Forecast
Issued by NWS

Home | Current Version | Previous Version | Text Only | Print | Product List | Glossary On
Versions: 1 2 3 4 5 6 7 8 9 10 11 12 13 14 15 16 17 18 19 20 21 22 23
222
FTUS43 KILX 192342
TAFCMI
TAF
KCMI 192342Z 2000/2024 15007KT P6SM FEW250
     FM200300 15007KT 1SM BR BKN004
     FM200400 16007KT 1/4SM FG VV002
     FM201400 15014KT 1SM BR OVC004
     FM201600 15014G21KT 1 1/2SM BR OVC004
     FM201800 15014G22KT P6SM SCT012 OVC035=

USA.gov is the U.S. government's official web portal to all federal, state and local government web resources and services.